createdAt,value
2019-05-01T00:01:02.329Z,13.25
2019-05-01T00:03:41.306Z,10.95
2019-05-01T00:06:12.923Z,11.33
2019-05-01T00:08:43.232Z,15.43
2019-05-01T00:11:13.552Z,16.23
2019-05-01T00:13:43.542Z,16.45
2019-05-01T00:16:13.678Z,12.70
2019-05-01T00:18:43.856Z,13.00
2019-05-01T00:21:14.059Z,12.23
2019-05-01T00:23:44.017Z,12.05
2019-05-01T00:26:14.197Z,11.63
2019-05-01T00:28:45.612Z,13.43
2019-05-01T00:31:16.188Z,14.18
2019-05-01T00:33:46.343Z,13.95
2019-05-01T00:36:16.547Z,10.63
2019-05-01T00:38:46.593Z,11.75
2019-05-01T00:41:16.834Z,11.70
2019-05-01T00:43:47.723Z,13.20
2019-05-01T00:46:17.622Z,12.65
2019-05-01T00:48:47.970Z,13.93
2019-05-01T00:51:17.893Z,14.18
2019-05-01T00:53:47.899Z,10.60
2019-05-01T00:56:19.713Z,14.53
2019-05-01T00:58:51.511Z,14.75
2019-05-01T01:01:41.144Z,11.35
2019-05-01T01:04:12.936Z,9.33
2019-05-01T01:06:43.321Z,12.00
2019-05-01T01:09:14.887Z,14.45
2019-05-01T01:11:45.030Z,11.70
2019-05-01T01:14:15.349Z,12.05
2019-05-01T01:16:45.434Z,10.95
2019-05-01T01:19:16.796Z,12.78
2019-05-01T01:21:46.744Z,13.32
2019-05-01T01:24:17.103Z,14.28
2019-05-01T01:26:47.271Z,16.50
2019-05-01T01:29:17.624Z,18.52
2019-05-01T01:31:48.123Z,18.92
2019-05-01T01:34:18.314Z,18.17
2019-05-01T01:36:48.780Z,13.98
2019-05-01T01:39:19.013Z,14.35
2019-05-01T01:41:49.456Z,16.65
2019-05-01T01:44:25.339Z,11.85
2019-05-01T01:47:00.549Z,13.10
2019-05-01T01:49:31.149Z,15.75
2019-05-01T01:52:01.626Z,16.25
2019-05-01T01:54:32.047Z,14.43
2019-05-01T01:57:02.315Z,19.92
2019-05-01T01:59:33.008Z,11.70
2019-05-01T02:02:04.926Z,14.15
2019-05-01T02:04:52.590Z,17.98
2019-05-01T02:07:22.816Z,13.58
2019-05-01T02:09:53.269Z,13.25
2019-05-01T02:12:23.853Z,14.33
2019-05-01T02:14:54.123Z,16.85
2019-05-01T02:17:24.309Z,16.57
2019-05-01T02:19:54.473Z,19.27
2019-05-01T02:22:24.574Z,16.32
2019-05-01T02:24:55.061Z,16.80
2019-05-01T02:27:27.708Z,16.95
2019-05-01T02:30:00.129Z,16.37
2019-05-01T02:32:30.849Z,17.85
2019-05-01T02:35:01.462Z,15.80
2019-05-01T02:37:34.583Z,21.05
2019-05-01T02:40:16.323Z,16.87
2019-05-01T02:42:46.912Z,19.48
2019-05-01T02:45:18.325Z,26.57
2019-05-01T02:47:49.374Z,25.55
2019-05-01T02:50:21.880Z,21.57
2019-05-01T02:52:53.487Z,23.20
2019-05-01T02:55:28.384Z,24.12
2019-05-01T02:58:00.000Z,25.77
2019-05-01T03:00:31.045Z,95.85
2019-05-01T03:03:03.247Z,104.67
2019-05-01T03:05:34.953Z,55.50
2019-05-01T03:08:05.443Z,31.95
2019-05-01T03:10:36.052Z,35.80
2019-05-01T03:13:06.381Z,31.15
2019-05-01T03:15:37.824Z,22.35
2019-05-01T03:18:12.824Z,22.35
2019-05-01T03:20:45.314Z,30.37
2019-05-01T03:23:16.903Z,23.30
2019-05-01T03:25:48.699Z,26.40
2019-05-01T03:28:19.074Z,19.25
2019-05-01T03:30:49.243Z,19.52
2019-05-01T03:33:19.681Z,16.65
2019-05-01T03:35:49.872Z,19.87
2019-05-01T03:38:20.341Z,19.65
2019-05-01T03:40:51.060Z,18.45
2019-05-01T03:43:21.901Z,21.17
2019-05-01T03:45:53.168Z,17.92
2019-05-01T03:48:23.597Z,18.90
2019-05-01T03:50:54.568Z,18.95
2019-05-01T03:53:26.110Z,22.70
2019-05-01T03:55:56.348Z,20.60
2019-05-01T03:58:27.518Z,21.68
2019-05-01T04:01:11.416Z,23.60
2019-05-01T04:03:49.652Z,21.73
2019-05-01T04:06:19.853Z,21.30
2019-05-01T04:08:50.698Z,25.27
2019-05-01T04:11:20.977Z,30.25
2019-05-01T04:13:51.497Z,33.67
2019-05-01T04:16:23.200Z,29.42
2019-05-01T04:18:53.367Z,34.50
2019-05-01T04:21:25.412Z,29.87
2019-05-01T04:23:56.155Z,27.98
2019-05-01T04:26:26.570Z,36.93
2019-05-01T04:29:01.294Z,28.25
2019-05-01T04:31:36.029Z,28.98
2019-05-01T04:34:08.426Z,24.32
2019-05-01T04:36:45.892Z,25.17
2019-05-01T04:39:16.102Z,23.18
2019-05-01T04:41:46.543Z,21.85
2019-05-01T04:44:17.270Z,19.98
2019-05-01T04:46:49.374Z,20.32
2019-05-01T04:49:20.053Z,16.45
2019-05-01T04:51:50.236Z,19.37
2019-05-01T04:54:21.025Z,15.88
2019-05-01T04:56:51.534Z,17.50
2019-05-01T04:59:22.091Z,18.15
2019-05-01T05:01:57.605Z,20.57
2019-05-01T05:04:28.124Z,12.23
2019-05-01T05:06:58.929Z,16.27
2019-05-01T05:09:45.469Z,12.10
2019-05-01T05:12:23.905Z,13.13
2019-05-01T05:14:55.775Z,11.12
2019-05-01T05:17:27.295Z,14.87
2019-05-01T05:19:57.522Z,11.57
2019-05-01T05:22:27.623Z,14.15
2019-05-01T05:24:57.738Z,10.18
2019-05-01T05:27:29.379Z,11.18
2019-05-01T05:30:00.099Z,13.25
2019-05-01T05:32:32.615Z,14.00
2019-05-01T05:35:06.872Z,9.63
2019-05-01T05:37:55.485Z,8.95
2019-05-01T05:40:28.609Z,12.40
2019-05-01T05:42:58.849Z,9.68
2019-05-01T05:45:29.004Z,10.90
2019-05-01T05:47:59.375Z,11.50
2019-05-01T05:50:45.513Z,10.25
2019-05-01T05:53:19.901Z,10.95
2019-05-01T05:55:55.930Z,9.38
2019-05-01T05:58:35.503Z,11.93
2019-05-01T06:01:11.180Z,10.45
2019-05-01T06:03:50.656Z,11.18
2019-05-01T06:06:27.851Z,10.28
2019-05-01T06:09:00.656Z,11.50
2019-05-01T06:11:52.249Z,13.90
2019-05-01T06:14:44.090Z,10.95
2019-05-01T06:17:28.529Z,11.25
2019-05-01T06:20:14.310Z,9.15
2019-05-01T06:23:02.745Z,10.95
2019-05-01T06:25:37.821Z,10.48
2019-05-01T06:28:08.483Z,11.35
2019-05-01T06:30:41.955Z,11.43
2019-05-01T06:33:11.299Z,10.05
2019-05-01T06:35:41.723Z,10.63
2019-05-01T06:38:17.366Z,14.18
2019-05-01T06:40:52.969Z,10.85
2019-05-01T06:43:28.954Z,9.85
2019-05-01T06:46:13.071Z,12.28
2019-05-01T06:49:06.624Z,8.45
2019-05-01T06:51:37.908Z,10.13
2019-05-01T06:54:11.350Z,10.05
2019-05-01T06:56:42.887Z,9.08
2019-05-01T06:59:14.643Z,10.63
2019-05-01T07:01:45.736Z,8.88
2019-05-01T07:04:16.408Z,7.77
2019-05-01T07:06:46.774Z,7.67
2019-05-01T07:09:27.398Z,10.82
2019-05-01T07:11:52.656Z,10.10
2019-05-01T07:14:21.949Z,12.47
2019-05-01T07:16:52.099Z,10.82
2019-05-01T07:19:23.959Z,8.98
2019-05-01T07:21:54.335Z,12.53
2019-05-01T07:24:27.944Z,9.38
2019-05-01T07:26:56.746Z,8.65
2019-05-01T07:29:29.015Z,10.55
2019-05-01T07:32:01.664Z,8.75
2019-05-01T07:34:31.297Z,9.03
2019-05-01T07:37:01.662Z,11.80
2019-05-01T07:39:32.766Z,7.87
2019-05-01T07:42:21.457Z,14.55
2019-05-01T07:44:53.873Z,8.30
2019-05-01T07:47:35.035Z,7.05
2019-05-01T07:50:14.111Z,10.35
2019-05-01T07:52:47.779Z,7.10
2019-05-01T07:55:20.064Z,7.83
2019-05-01T07:57:50.700Z,8.40
2019-05-01T08:00:41.452Z,10.55
2019-05-01T08:03:12.027Z,6.53
2019-05-01T08:05:45.497Z,6.70
2019-05-01T08:08:13.811Z,7.78
2019-05-01T08:10:43.821Z,6.28
2019-05-01T08:13:13.896Z,8.18
2019-05-01T08:15:45.173Z,5.00
2019-05-01T08:18:16.682Z,7.75
2019-05-01T08:21:05.724Z,7.45
2019-05-01T08:23:35.860Z,8.15
2019-05-01T08:26:08.791Z,9.50
2019-05-01T08:28:56.755Z,11.60
2019-05-01T08:31:44.729Z,4.25
2019-05-01T08:34:16.427Z,5.72
2019-05-01T08:36:47.205Z,4.92
2019-05-01T08:39:18.484Z,6.35
2019-05-01T08:41:48.548Z,7.20
2019-05-01T08:44:19.401Z,7.37
2019-05-01T08:47:07.391Z,4.80
2019-05-01T08:49:50.637Z,7.42
2019-05-01T08:52:19.768Z,7.22
2019-05-01T08:54:49.797Z,8.50
2019-05-01T08:57:19.864Z,5.72
2019-05-01T08:59:49.817Z,6.00
2019-05-01T09:02:19.854Z,5.80
2019-05-01T09:05:01.676Z,6.03
2019-05-01T09:07:24.071Z,9.33
2019-05-01T09:09:53.366Z,7.47
2019-05-01T09:12:23.319Z,9.93
2019-05-01T09:14:53.336Z,7.67
2019-05-01T09:17:23.404Z,7.85
2019-05-01T09:19:53.477Z,8.23
2019-05-01T09:22:23.445Z,5.47
2019-05-01T09:24:53.705Z,10.85
2019-05-01T09:27:29.283Z,8.55
2019-05-01T09:30:04.336Z,6.10
2019-05-01T09:32:33.740Z,5.42
2019-05-01T09:35:15.204Z,5.58
2019-05-01T09:37:36.603Z,9.08
2019-05-01T09:40:10.432Z,5.30
2019-05-01T09:42:40.765Z,4.70
2019-05-01T09:45:11.403Z,10.23
2019-05-01T09:47:41.656Z,8.15
2019-05-01T09:50:11.903Z,11.30
2019-05-01T09:52:59.753Z,7.47
2019-05-01T09:55:31.497Z,7.62
2019-05-01T09:58:02.830Z,7.85
2019-05-01T10:00:33.822Z,6.87
2019-05-01T10:03:04.006Z,4.60
2019-05-01T10:05:38.085Z,7.93
2019-05-01T10:08:06.396Z,5.80
2019-05-01T10:10:37.127Z,4.33
2019-05-01T10:13:07.397Z,7.83
2019-05-01T10:15:37.746Z,4.63
2019-05-01T10:18:08.059Z,5.97
2019-05-01T10:20:39.333Z,5.45
2019-05-01T10:23:13.043Z,5.80
2019-05-01T10:25:47.920Z,5.33
2019-05-01T10:28:31.527Z,7.40
2019-05-01T10:31:06.930Z,7.42
2019-05-01T10:33:45.899Z,6.62
2019-05-01T10:36:18.808Z,8.10
2019-05-01T10:38:49.505Z,7.92
2019-05-01T10:41:19.665Z,5.75
2019-05-01T10:43:49.757Z,5.90
2019-05-01T10:46:19.854Z,7.85
2019-05-01T10:48:49.926Z,5.00
2019-05-01T10:51:21.395Z,7.15
2019-05-01T10:53:51.417Z,5.85
2019-05-01T10:56:21.412Z,7.28
2019-05-01T10:58:52.608Z,7.78
2019-05-01T11:01:24.341Z,8.60
2019-05-01T11:03:54.334Z,9.23
2019-05-01T11:06:24.465Z,6.57
2019-05-01T11:08:54.371Z,9.03
2019-05-01T11:11:24.461Z,11.60
2019-05-01T11:13:54.261Z,9.28
2019-05-01T11:16:24.437Z,10.05
2019-05-01T11:18:54.533Z,21.67
2019-05-01T11:21:24.695Z,9.50
2019-05-01T11:23:54.573Z,8.43
2019-05-01T11:26:24.830Z,12.28
2019-05-01T11:28:55.036Z,9.18
2019-05-01T11:31:32.766Z,10.73
2019-05-01T11:34:20.335Z,11.38
2019-05-01T11:37:10.370Z,9.78
2019-05-01T11:39:42.229Z,8.68
2019-05-01T11:42:13.739Z,8.55
2019-05-01T11:44:44.754Z,11.30
2019-05-01T11:47:14.798Z,14.45
2019-05-01T11:49:44.848Z,12.13
2019-05-01T11:52:14.905Z,12.50
2019-05-01T11:54:45.064Z,13.80
2019-05-01T11:57:15.189Z,7.80
2019-05-01T11:59:45.102Z,14.73
2019-05-01T12:02:15.075Z,7.72
2019-05-01T12:04:45.000Z,10.55
2019-05-01T12:07:15.691Z,9.48
2019-05-01T12:09:46.109Z,7.40
2019-05-01T12:12:17.774Z,11.40
2019-05-01T12:14:48.018Z,8.38
2019-05-01T12:17:19.493Z,8.50
2019-05-01T12:19:49.539Z,12.90
2019-05-01T12:22:20.983Z,12.03
2019-05-01T12:24:50.984Z,10.85
2019-05-01T12:27:22.859Z,10.40
2019-05-01T12:29:57.597Z,8.13
2019-05-01T12:32:31.407Z,9.03
2019-05-01T12:35:05.984Z,10.08
2019-05-01T12:37:45.446Z,8.60
2019-05-01T12:40:17.549Z,9.03
2019-05-01T12:42:49.431Z,11.55
2019-05-01T12:45:19.798Z,9.70
2019-05-01T12:47:54.673Z,13.95
2019-05-01T12:50:27.960Z,9.03
2019-05-01T12:53:08.638Z,9.70
2019-05-01T12:55:51.390Z,8.13
2019-05-01T12:58:45.910Z,11.35
2019-05-01T13:01:17.438Z,9.80
2019-05-01T13:03:48.058Z,11.93
2019-05-01T13:06:18.167Z,12.67
2019-05-01T13:08:49.355Z,12.15
2019-05-01T13:11:19.497Z,9.40
2019-05-01T13:13:49.761Z,10.68
2019-05-01T13:16:22.571Z,16.40
2019-05-01T13:18:52.994Z,11.55
2019-05-01T13:21:23.241Z,14.60
2019-05-01T13:23:54.258Z,10.20
2019-05-01T13:26:35.173Z,9.85
2019-05-01T13:29:13.411Z,9.85
2019-05-01T13:31:55.566Z,8.73
2019-05-01T13:34:27.682Z,12.47
2019-05-01T13:38:10.117Z,9.33
2019-05-01T13:39:59.425Z,12.28
2019-05-01T13:42:47.461Z,11.08
2019-05-01T13:45:23.893Z,14.40
2019-05-01T13:47:54.662Z,18.80
2019-05-01T13:50:26.138Z,14.05
2019-05-01T13:52:56.247Z,13.03
2019-05-01T13:55:26.511Z,18.45
2019-05-01T13:57:56.643Z,13.25
2019-05-01T14:00:27.410Z,13.30
2019-05-01T14:02:57.426Z,19.55
2019-05-01T14:05:28.992Z,14.55
2019-05-01T14:08:00.918Z,16.70
2019-05-01T14:10:31.269Z,13.22
2019-05-01T14:13:03.903Z,15.03
2019-05-01T14:15:38.164Z,12.50
2019-05-01T14:18:08.175Z,12.93
2019-05-01T14:20:40.517Z,11.57
2019-05-01T14:23:21.344Z,19.30
2019-05-01T14:26:04.082Z,19.67
2019-05-01T14:28:37.674Z,13.85
2019-05-01T14:31:08.191Z,12.20
2019-05-01T14:33:38.269Z,12.93
2019-05-01T14:36:09.671Z,10.50
2019-05-01T14:38:42.699Z,12.68
2019-05-01T14:41:16.245Z,15.32
2019-05-01T14:43:46.253Z,11.48
2019-05-01T14:46:16.609Z,14.83
2019-05-01T14:48:46.642Z,16.93
2019-05-01T14:51:21.459Z,13.18
2019-05-01T14:53:50.275Z,12.40
2019-05-01T14:56:20.491Z,12.03
2019-05-01T14:58:51.062Z,12.95
2019-05-01T15:01:21.239Z,17.80
2019-05-01T15:03:54.259Z,15.48
2019-05-01T15:06:24.614Z,15.35
2019-05-01T15:08:54.897Z,17.02
2019-05-01T15:11:28.968Z,15.88
2019-05-01T15:14:12.218Z,20.23
2019-05-01T15:16:53.415Z,13.13
2019-05-01T15:19:25.331Z,14.45
2019-05-01T15:21:59.804Z,20.70
2019-05-01T15:24:32.558Z,17.65
2019-05-01T15:27:03.911Z,16.97
2019-05-01T15:29:33.998Z,15.53
2019-05-01T15:32:04.724Z,13.38
2019-05-01T15:34:37.526Z,12.65
2019-05-01T15:37:07.758Z,13.35
2019-05-01T15:39:57.394Z,13.68
2019-05-01T15:42:36.994Z,14.90
2019-05-01T15:45:10.615Z,14.38
2019-05-01T15:47:40.961Z,19.80
2019-05-01T15:50:27.181Z,14.40
2019-05-01T15:53:01.030Z,16.75
2019-05-01T15:55:34.057Z,18.95
2019-05-01T15:58:13.964Z,23.95
2019-05-01T16:00:56.934Z,16.55
2019-05-01T16:03:29.963Z,18.57
2019-05-01T16:06:02.420Z,19.15
2019-05-01T16:08:35.912Z,20.70
2019-05-01T16:11:10.144Z,16.75
2019-05-01T16:13:43.044Z,20.90
2019-05-01T16:16:16.119Z,25.92
2019-05-01T16:18:46.542Z,15.95
2019-05-01T16:21:16.554Z,18.45
2019-05-01T16:23:47.165Z,17.52
2019-05-01T16:26:36.150Z,16.70
2019-05-01T16:29:09.127Z,22.37
2019-05-01T16:31:42.510Z,21.70
2019-05-01T16:34:12.666Z,20.10
2019-05-01T16:36:42.673Z,20.43
2019-05-01T16:39:17.059Z,22.55
2019-05-01T16:41:48.806Z,21.05
2019-05-01T16:44:19.064Z,26.73
2019-05-01T16:46:49.491Z,27.35
2019-05-01T16:49:21.932Z,23.60
2019-05-01T16:51:55.296Z,25.65
2019-05-01T16:54:25.507Z,27.02
2019-05-01T16:56:57.428Z,29.92
2019-05-01T16:59:27.420Z,36.95
2019-05-01T17:01:59.173Z,33.63
2019-05-01T17:04:40.313Z,105.17
2019-05-01T17:07:22.557Z,58.23
2019-05-01T17:10:14.054Z,49.05
2019-05-01T17:12:48.308Z,50.88
2019-05-01T17:15:20.256Z,46.77
2019-05-01T17:17:50.458Z,44.15
2019-05-01T17:22:55.898Z,53.30
2019-05-01T17:25:26.303Z,48.50
2019-05-01T17:27:57.921Z,52.77
2019-05-01T17:30:43.997Z,47.62
2019-05-01T17:33:19.547Z,50.60
2019-05-01T17:35:48.420Z,44.90
2019-05-01T17:38:19.347Z,52.13
2019-05-01T17:40:51.862Z,41.30
2019-05-01T17:43:35.236Z,42.55
2019-05-01T17:46:10.778Z,45.80
2019-05-01T17:48:39.286Z,43.63
2019-05-01T17:51:09.427Z,42.85
2019-05-01T17:53:39.499Z,45.38
2019-05-01T17:56:14.731Z,42.10
2019-05-01T17:58:41.851Z,42.65
2019-05-01T18:01:33.199Z,40.75
2019-05-01T18:04:12.275Z,40.78
2019-05-01T18:06:46.504Z,40.98
2019-05-01T18:09:17.351Z,39.25
2019-05-01T18:11:52.041Z,49.67
2019-05-01T18:14:19.075Z,40.48
2019-05-01T18:16:50.358Z,44.13
2019-05-01T18:19:20.311Z,39.25
2019-05-01T18:21:53.570Z,43.40
2019-05-01T18:24:34.393Z,37.95
2019-05-01T18:27:06.343Z,38.33
2019-05-01T18:29:40.057Z,46.30
2019-05-01T18:32:11.417Z,38.73
2019-05-01T18:34:41.470Z,39.48
2019-05-01T18:37:19.581Z,39.05
2019-05-01T18:39:49.701Z,37.25
2019-05-01T18:42:19.896Z,37.90
2019-05-01T18:44:50.085Z,38.23
2019-05-01T18:47:21.568Z,54.67
2019-05-01T18:49:51.593Z,52.43
2019-05-01T18:52:22.777Z,50.15
2019-05-01T18:54:54.006Z,56.65
2019-05-01T18:57:34.541Z,45.25
2019-05-01T19:00:24.466Z,47.17
2019-05-01T19:03:04.219Z,48.00
2019-05-01T19:05:43.263Z,46.00
2019-05-01T19:08:15.571Z,47.08
2019-05-01T19:10:51.333Z,52.50
2019-05-01T19:13:34.901Z,49.58
2019-05-01T19:16:08.298Z,44.98
2019-05-01T19:18:37.072Z,51.25
2019-05-01T19:21:09.248Z,52.27
2019-05-01T19:26:11.215Z,57.00
2019-05-01T19:28:42.784Z,49.15
2019-05-01T19:31:21.270Z,54.35
2019-05-01T19:33:58.454Z,55.92
2019-05-01T19:36:34.687Z,51.65
2019-05-01T19:39:13.637Z,45.80
2019-05-01T19:41:49.215Z,44.38
2019-05-01T19:44:23.408Z,51.15
2019-05-01T19:47:00.295Z,52.35
2019-05-01T19:49:31.117Z,55.35
2019-05-01T19:52:04.693Z,51.28
2019-05-01T19:54:38.902Z,60.33
2019-05-01T19:57:08.956Z,63.20
2019-05-01T19:59:42.838Z,64.17
2019-05-01T20:05:01.076Z,60.33
2019-05-01T20:07:31.706Z,59.20
2019-05-01T20:10:02.627Z,61.65
2019-05-01T20:12:40.974Z,73.02
2019-05-01T20:15:11.543Z,90.35
2019-05-01T20:17:50.132Z,74.55
2019-05-01T20:20:25.878Z,81.28
2019-05-01T20:22:59.844Z,69.17
2019-05-01T20:25:33.469Z,62.15
2019-05-01T20:28:22.499Z,66.72
2019-05-01T20:31:02.409Z,66.50
2019-05-01T20:33:44.541Z,59.70
2019-05-01T20:36:18.155Z,58.78
2019-05-01T20:38:48.484Z,59.67
2019-05-01T20:41:37.407Z,56.65
2019-05-01T20:44:24.048Z,56.88
2019-05-01T20:47:08.141Z,58.47
2019-05-01T20:49:41.307Z,53.17
2019-05-01T20:52:16.924Z,51.42
2019-05-01T20:54:49.900Z,50.73
2019-05-01T20:57:39.525Z,50.78
2019-05-01T21:00:11.230Z,43.00
2019-05-01T21:02:43.025Z,38.08
2019-05-01T21:05:15.261Z,40.28
2019-05-01T21:07:56.570Z,41.70
2019-05-01T21:10:29.918Z,38.50
2019-05-01T21:12:59.744Z,37.83
2019-05-01T21:15:29.768Z,37.78
2019-05-01T21:17:59.751Z,39.15
2019-05-01T21:20:29.758Z,34.43
2019-05-01T21:23:05.705Z,36.28
2019-05-01T21:25:31.662Z,31.60
2019-05-01T21:28:06.224Z,37.25
2019-05-01T21:30:43.926Z,36.00
2019-05-01T21:33:13.888Z,31.97
2019-05-01T21:35:44.564Z,33.92
2019-05-01T21:38:15.939Z,30.77
2019-05-01T21:40:45.870Z,31.73
2019-05-01T21:43:17.018Z,28.35
2019-05-01T21:45:47.186Z,32.00
2019-05-01T21:48:17.688Z,31.85
2019-05-01T21:50:47.881Z,31.12
2019-05-01T21:53:19.071Z,29.90
2019-05-01T21:55:49.093Z,30.25
2019-05-01T21:58:21.150Z,28.75
2019-05-01T22:00:55.164Z,30.25
2019-05-01T22:03:27.443Z,30.08
2019-05-01T22:05:57.310Z,28.77
2019-05-01T22:08:28.422Z,27.77
2019-05-01T22:11:01.849Z,25.50
2019-05-01T22:13:30.736Z,28.40
2019-05-01T22:16:11.717Z,26.05
2019-05-01T22:18:52.471Z,26.15
2019-05-01T22:21:39.641Z,28.23
2019-05-01T22:24:27.401Z,27.55
2019-05-01T22:27:08.589Z,30.12
2019-05-01T22:32:39.103Z,31.87
2019-05-01T22:35:24.353Z,39.95
2019-05-01T22:37:54.349Z,40.95
2019-05-01T22:40:26.426Z,31.95
2019-05-01T22:42:56.415Z,32.38
2019-05-01T22:45:26.777Z,30.82
2019-05-01T22:47:56.940Z,31.25
2019-05-01T22:50:27.243Z,29.40
2019-05-01T22:52:57.639Z,30.08
2019-05-01T22:55:27.995Z,27.58
2019-05-01T22:57:58.633Z,33.35
2019-05-01T23:00:36.871Z,28.20
2019-05-01T23:03:23.917Z,27.60
2019-05-01T23:05:54.310Z,27.27
2019-05-01T23:08:24.445Z,28.77
2019-05-01T23:10:54.735Z,30.23
2019-05-01T23:13:25.060Z,30.43
2019-05-01T23:15:56.181Z,29.27
2019-05-01T23:18:26.958Z,29.42
2019-05-01T23:20:57.158Z,31.00
2019-05-01T23:23:27.236Z,34.67
2019-05-01T23:25:57.682Z,31.87
2019-05-01T23:28:27.702Z,33.98
2019-05-01T23:30:58.165Z,31.77
2019-05-01T23:33:28.169Z,31.05
2019-05-01T23:35:58.590Z,30.75
2019-05-01T23:38:28.676Z,37.08
2019-05-01T23:40:58.951Z,33.25
2019-05-01T23:43:29.268Z,34.23
2019-05-01T23:45:59.337Z,34.50
2019-05-01T23:48:29.460Z,32.88
2019-05-01T23:51:02.863Z,33.65
2019-05-01T23:53:33.129Z,28.38
2019-05-01T23:56:03.111Z,33.88
2019-05-01T23:58:34.092Z,36.28
